McGrath, AK (99627)

9:30 PM AKDT on July 23, 2016 (GMT -0800)
Nikolai AP, Nikolai, AK | | Change Station

Elev 413 ft 63.02 °N, 154.36 °W | Updated 29 minutes ago

Overcast
Overcast
56 °F
Feels Like 56 °F
N
5
Wind Variable Wind from SW

Today
High -- | Low -- °F
--% Chance of Precip.
Yesterday
High -- | Low -- °F
Precip. -- in
Pressure 29.74 in
Visibility 10.0 miles
Clouds Overcast 3500 ft
Dew Point 50 °F
Humidity 80%
Rainfall 0.01 in
Snow Depth Not available.
5:14 AM 11:35 PM
Waning Gibbous, 79% visible
METAR PAFS 240501Z AUTO 22004KT 10SM OVC035 13/10 A2968 RMK AO2 SLP069 T01330100
Pressure 29.74 in
Visibility 10.0 miles
Clouds Overcast 3500 ft
Dew Point 50 °F
Humidity 80%
Rainfall 0.01 in
Snow Depth Not available.
5:14 AM 11:35 PM
Waning Gibbous, 79% visible
METAR PAFS 240501Z AUTO 22004KT 10SM OVC035 13/10 A2968 RMK AO2 SLP069 T01330100

10-Day Weather Forecast

Almanac

Astronomy

Jul. 23, 2016 Rise Set
Actual Time
Civil Twilight
Nautical Twilight
Astronomical Twilight
Moon
Length of Visible Light
Length of Day
Tomorrow will be .
, % of the Moon is Illuminated

Today's Extremes

State Highs State Lows

Community

WunderPhotos

Upload Photos

1,927,031 photos uploaded!

WunderBlog® & News

Nearby

Air Quality

  Air Quality AQ Index Pollutant
Not available.

Snow Depth

Station Depth Elevation

Earthquake Activity

City Distance Mag. Time & Date
Minimum magnitude displayed is 2.5.

Coastal Water Temperatures

Place Temperature

Stations

Nearby Weather Stations

Station Location Temp. Windchill Dew Point Humidity Wind Precip. Elev Updated Type
                   

Watches & Warnings

There are currently no watches in effect.